Time;durP1;ratioP1;P1;durP2;ratioP2;P2;SDS_P1;SDS_P2;PMS_P1;PMS_P2;Temp;Humidity;BMP_temperature;BMP_pressure;BME280_temperature;BME280_humidity;BME280_pressure;Samples;Min_cycle;Max_cycle;Signal;HPM_P1;HPM_P2
2024/01/23 00:02:09;;;;;;;14.80;10.60;;;;;;;4.05;78.82;100003.64;110306;1276;22160;-86
2024/01/23 00:04:36;;;;;;;11.50;10.00;;;;;;;4.05;79.08;100005.04;109934;1278;22168;-82
2024/01/23 00:07:04;;;;;;;11.80;9.70;;;;;;;4.04;79.04;100014.61;110138;1280;22175;-84
2024/01/23 00:09:31;;;;;;;12.50;9.50;;;;;;;4.03;79.35;100011.46;110103;1281;22161;-85
2024/01/23 00:12:00;;;;;;;12.20;10.10;;;;;;;4.03;79.50;100014.79;110150;1281;23367;-86
2024/01/23 00:14:29;;;;;;;16.90;10.80;;;;;;;4.04;79.91;100010.61;110015;1281;22213;-86
2024/01/23 00:16:58;;;;;;;11.50;10.30;;;;;;;4.04;80.08;100020.36;110029;1281;22155;-85
2024/01/23 00:19:25;;;;;;;11.90;10.00;;;;;;;4.04;80.50;100028.54;110038;1279;22163;-84
2024/01/23 00:21:53;;;;;;;13.60;11.20;;;;;;;4.04;80.72;100023.84;110019;1278;22212;-84
2024/01/23 00:24:20;;;;;;;13.80;11.10;;;;;;;4.02;80.85;100012.66;110174;1276;22098;-86
2024/01/23 00:26:48;;;;;;;11.60;9.80;;;;;;;4.00;81.12;100008.98;109865;1283;22222;-84
2024/01/23 00:29:15;;;;;;;13.60;11.30;;;;;;;3.97;81.05;100014.88;109865;1281;22903;-85
2024/01/23 00:31:43;;;;;;;12.80;11.40;;;;;;;3.99;81.28;100015.42;109766;1284;22625;-84
2024/01/23 00:34:11;;;;;;;13.70;11.50;;;;;;;4.01;81.29;100023.64;109822;1284;23197;-86
2024/01/23 00:36:38;;;;;;;14.20;10.70;;;;;;;4.03;81.33;100024.01;109830;1284;22926;-85
2024/01/23 00:39:06;;;;;;;13.30;11.30;;;;;;;4.04;81.38;100015.30;109335;1290;22994;-85
2024/01/23 00:41:34;;;;;;;13.90;11.60;;;;;;;4.04;81.65;100014.44;109526;1290;22225;-85
2024/01/23 00:44:03;;;;;;;12.10;10.50;;;;;;;3.99;81.83;100016.65;109360;1283;22992;-86
2024/01/23 00:46:35;;;;;;;13.30;11.20;;;;;;;3.98;81.96;100010.88;109894;1281;22393;-84
2024/01/23 00:49:03;;;;;;;13.40;11.30;;;;;;;3.95;81.90;100013.81;109530;1290;22202;-87
2024/01/23 00:51:32;;;;;;;11.80;10.20;;;;;;;3.95;81.94;100009.11;109475;1290;22162;-84
2024/01/23 00:54:00;;;;;;;12.90;11.10;;;;;;;3.95;82.04;100012.61;108964;1295;22203;-85
2024/01/23 00:56:31;;;;;;;13.90;11.50;;;;;;;3.96;81.93;100013.46;108273;1297;22454;-85
2024/01/23 00:59:00;;;;;;;14.20;10.30;;;;;;;3.96;81.92;100013.30;108311;1301;22180;-87
2024/01/23 01:01:29;;;;;;;12.90;10.80;;;;;;;3.92;82.04;100017.97;108219;1301;22407;-86
2024/01/23 01:03:57;;;;;;;12.60;10.90;;;;;;;3.89;82.22;100021.25;108254;1301;22412;-84
2024/01/23 01:06:29;;;;;;;12.80;9.80;;;;;;;3.87;82.13;100028.36;108438;1295;22193;-82
2024/01/23 01:08:58;;;;;;;16.40;11.50;;;;;;;3.89;82.21;100032.38;109309;1293;22222;-84
2024/01/23 01:11:25;;;;;;;15.40;12.40;;;;;;;3.88;82.27;100038.65;109183;1290;22410;-84
2024/01/23 01:13:53;;;;;;;13.60;12.10;;;;;;;3.85;82.53;100038.95;109287;1284;22174;-84
2024/01/23 01:16:20;;;;;;;14.10;11.00;;;;;;;3.82;82.61;100036.30;109808;1277;22240;-85
2024/01/23 01:18:49;;;;;;;13.00;11.10;;;;;;;3.82;82.86;100034.21;110233;1272;22151;-84
2024/01/23 01:21:17;;;;;;;13.90;11.30;;;;;;;3.80;83.00;100033.66;110112;1278;22306;-86
2024/01/23 01:23:44;;;;;;;13.30;10.70;;;;;;;3.77;83.00;100026.30;110154;1277;22320;-84
2024/01/23 01:26:11;;;;;;;14.20;10.90;;;;;;;3.75;83.02;100029.93;110099;1278;22151;-88
2024/01/23 01:28:41;;;;;;;14.20;11.20;;;;;;;3.74;83.27;100033.75;110070;1275;22116;-86
2024/01/23 01:31:09;;;;;;;14.50;11.60;;;;;;;3.75;83.09;100044.57;110110;1275;22230;-86
2024/01/23 01:33:36;;;;;;;15.50;10.80;;;;;;;3.76;83.08;100042.84;110140;1278;22225;-86
2024/01/23 01:36:07;;;;;;;14.60;11.10;;;;;;;3.76;83.20;100049.30;109943;1277;22188;-85
2024/01/23 01:38:36;;;;;;;13.30;10.70;;;;;;;3.78;83.13;100050.88;109523;1290;22198;-85
2024/01/23 01:41:16;;;;;;;12.90;10.20;;;;;;;3.78;83.23;100052.27;109392;1290;22987;-86
2024/01/23 01:43:45;;;;;;;15.10;12.30;;;;;;;3.80;83.24;100051.61;109545;1290;22143;-86
2024/01/23 01:46:23;;;;;;;12.60;10.60;;;;;;;3.79;83.06;100057.15;109496;1290;22166;-86
2024/01/23 01:48:54;;;;;;;15.40;10.90;;;;;;;3.79;83.22;100051.58;108846;1296;22132;-85
2024/01/23 01:51:42;;;;;;;12.50;10.50;;;;;;;3.79;83.29;100050.55;108758;1296;22188;-85
2024/01/23 01:54:11;;;;;;;14.00;11.80;;;;;;;3.82;83.39;100045.70;108555;1299;22147;-85
2024/01/23 01:56:41;;;;;;;13.10;10.00;;;;;;;3.85;83.09;100042.63;108712;1293;22183;-85
2024/01/23 01:59:10;;;;;;;13.20;10.60;;;;;;;3.92;82.92;100037.65;109113;1293;22179;-86
2024/01/23 02:02:02;;;;;;;12.90;10.40;;;;;;;3.97;82.74;100036.31;109431;1290;22265;-86
2024/01/23 02:04:31;;;;;;;11.70;10.40;;;;;;;4.00;82.51;100038.08;109122;1293;22177;-84
2024/01/23 02:07:00;;;;;;;13.70;9.40;;;;;;;4.00;82.58;100045.58;108984;1293;22160;-85
2024/01/23 02:09:30;;;;;;;12.00;9.80;;;;;;;3.97;82.69;100053.39;109268;1292;22323;-83
2024/01/23 02:12:00;;;;;;;11.80;9.60;;;;;;;3.99;82.64;100060.38;109545;1286;22231;-83
2024/01/23 02:14:29;;;;;;;9.90;8.80;;;;;;;4.04;82.57;100058.86;109853;1286;22871;-84
2024/01/23 02:16:57;;;;;;;14.10;11.00;;;;;;;4.07;82.50;100060.83;109838;1283;22183;-83
2024/01/23 02:19:27;;;;;;;13.80;10.20;;;;;;;4.08;82.41;100062.25;109463;1290;22225;-83
2024/01/23 02:21:56;;;;;;;13.80;9.70;;;;;;;4.09;82.32;100063.30;109568;1287;22182;-85
2024/01/23 02:24:23;;;;;;;13.20;9.90;;;;;;;4.12;82.32;100069.08;109018;1287;23002;-85
2024/01/23 02:26:50;;;;;;;14.40;9.20;;;;;;;4.14;82.17;100072.59;109534;1287;23499;-85
2024/01/23 02:29:18;;;;;;;11.00;9.30;;;;;;;4.16;82.15;100073.13;109700;1284;22339;-85
2024/01/23 02:31:47;;;;;;;11.00;8.80;;;;;;;4.18;82.04;100065.31;109670;1287;22182;-86
2024/01/23 02:34:14;;;;;;;12.50;9.00;;;;;;;4.16;82.13;100066.51;109561;1287;22853;-86
2024/01/23 02:36:43;;;;;;;11.50;9.50;;;;;;;4.14;82.25;100066.84;109637;1282;22199;-85
2024/01/23 02:39:11;;;;;;;12.40;10.10;;;;;;;4.15;82.16;100070.50;109784;1283;22372;-85
2024/01/23 02:41:38;;;;;;;12.60;9.20;;;;;;;4.16;82.09;100072.80;109863;1276;22174;-84
2024/01/23 02:44:06;;;;;;;12.60;9.30;;;;;;;4.18;82.12;100062.17;110392;1276;22859;-85
2024/01/23 02:46:33;;;;;;;11.90;9.40;;;;;;;4.19;81.96;100068.12;110028;1281;22932;-84
2024/01/23 02:49:01;;;;;;;12.10;8.90;;;;;;;4.19;81.88;100067.95;110036;1283;22861;-85
2024/01/23 02:51:29;;;;;;;11.80;9.50;;;;;;;4.17;81.83;100070.19;109963;1285;22270;-87
2024/01/23 02:56:52;;;;;;;11.30;9.30;;;;;;;4.21;81.73;100074.41;106749;1304;557892;-84
2024/01/23 02:59:19;;;;;;;13.30;9.20;;;;;;;4.18;81.75;100076.65;108198;1292;22569;-84
2024/01/23 03:01:46;;;;;;;13.30;9.20;;;;;;;4.18;81.76;100081.54;109039;1292;22921;-85
2024/01/23 03:04:14;;;;;;;10.60;8.60;;;;;;;4.20;81.74;100092.88;109110;1292;22598;-84
2024/01/23 03:12:34;;;;;;;12.60;9.00;;;;;;;4.23;81.60;100095.89;106957;1305;544857;-86
2024/01/23 03:21:28;;;;;;;12.90;9.10;;;;;;;4.24;81.37;100101.46;107083;1313;557870;-85
2024/01/23 03:26:13;;;;;;;12.70;9.20;;;;;;;4.21;81.39;100103.86;106949;1305;544779;-85
2024/01/23 03:28:40;;;;;;;12.60;8.90;;;;;;;4.17;81.33;100095.80;109372;1285;22551;-85
2024/01/23 03:31:08;;;;;;;13.50;8.60;;;;;;;4.14;81.45;100093.51;109113;1284;22628;-85
2024/01/23 03:33:36;;;;;;;12.50;8.70;;;;;;;4.13;81.39;100099.58;109512;1284;22556;-84
2024/01/23 03:36:04;;;;;;;9.70;8.20;;;;;;;4.11;81.45;100101.13;109274;1284;22575;-84
2024/01/23 03:38:32;;;;;;;11.40;8.30;;;;;;;4.12;81.46;100096.27;109525;1282;22556;-86
2024/01/23 03:47:10;;;;;;;12.90;9.50;;;;;;;4.08;81.56;100108.07;104501;1312;545536;-86
2024/01/23 03:49:37;;;;;;;10.40;8.60;;;;;;;4.07;81.45;100111.89;106185;1292;22690;-90
2024/01/23 03:52:04;;;;;;;12.20;8.60;;;;;;;4.03;81.55;100112.36;106534;1291;22742;-85
2024/01/23 03:54:32;;;;;;;10.60;8.60;;;;;;;3.98;81.72;100107.76;108231;1292;23102;-85
2024/01/23 03:56:59;;;;;;;9.10;8.20;;;;;;;3.94;81.65;100106.16;108817;1292;22543;-85
2024/01/23 03:59:27;;;;;;;11.50;8.60;;;;;;;3.92;81.79;100106.13;107832;1283;25260;-86
2024/01/23 04:01:54;;;;;;;15.60;8.70;;;;;;;3.92;81.69;100108.73;107039;1276;249192;-85
2024/01/23 04:04:22;;;;;;;10.80;8.50;;;;;;;3.92;81.71;100114.48;107934;1261;24069;-84
2024/01/23 04:06:49;;;;;;;10.60;7.60;;;;;;;3.88;81.78;100115.14;108789;1282;23856;-83
2024/01/23 04:09:17;;;;;;;10.20;7.90;;;;;;;3.86;81.81;100118.23;107825;1282;22552;-82
2024/01/23 04:11:46;;;;;;;11.90;7.80;;;;;;;3.87;81.90;100116.86;107715;1282;25480;-84
2024/01/23 04:14:16;;;;;;;11.70;8.60;;;;;;;3.87;81.81;100114.41;107223;1283;22634;-85
2024/01/23 04:16:43;;;;;;;10.90;8.80;;;;;;;3.85;81.87;100119.27;106360;1289;23174;-86
2024/01/23 04:19:10;;;;;;;13.10;8.90;;;;;;;3.83;81.91;100117.84;106529;1288;22793;-86
2024/01/23 04:21:37;;;;;;;13.20;8.60;;;;;;;3.83;82.07;100119.41;106309;1292;23016;-85
2024/01/23 04:24:05;;;;;;;12.70;8.30;;;;;;;3.82;81.94;100123.40;105898;1294;24233;-84
2024/01/23 04:26:32;;;;;;;12.30;9.10;;;;;;;3.79;82.03;100134.52;105666;1294;25309;-84
2024/01/23 04:28:59;;;;;;;12.90;9.00;;;;;;;3.80;82.02;100136.08;105423;1294;25592;-85
2024/01/23 04:31:27;;;;;;;11.70;8.50;;;;;;;3.77;82.03;100133.43;105572;1294;26726;-87
2024/01/23 04:33:54;;;;;;;11.80;8.40;;;;;;;3.77;82.18;100133.60;106241;1289;25242;-84
2024/01/23 04:36:22;;;;;;;12.40;8.20;;;;;;;3.78;82.18;100139.90;107710;1285;24499;-84
2024/01/23 04:38:49;;;;;;;14.10;9.30;;;;;;;3.79;82.08;100147.73;108803;1285;22508;-84
2024/01/23 04:41:16;;;;;;;11.70;8.80;;;;;;;3.76;82.10;100145.97;108687;1257;22584;-84
2024/01/23 04:43:43;;;;;;;12.80;8.40;;;;;;;3.75;82.21;100143.51;106715;1279;25297;-86
2024/01/23 04:46:11;;;;;;;13.60;8.90;;;;;;;3.72;82.22;100146.59;106587;1279;23020;-86
2024/01/23 04:48:38;;;;;;;11.80;8.20;;;;;;;3.68;82.31;100146.70;106214;1284;24341;-84
2024/01/23 04:51:05;;;;;;;16.00;9.10;;;;;;;3.66;82.30;100152.43;106198;1284;23908;-88
2024/01/23 04:53:33;;;;;;;12.20;8.60;;;;;;;3.63;82.45;100157.78;106304;1284;22820;-87
2024/01/23 04:56:01;;;;;;;10.40;8.20;;;;;;;3.62;82.58;100152.18;106290;1285;22666;-86
2024/01/23 04:58:29;;;;;;;13.30;8.50;;;;;;;3.59;82.51;100151.46;106198;1285;25295;-86
2024/01/23 05:00:56;;;;;;;11.20;9.00;;;;;;;3.59;82.65;100157.88;106376;1285;23151;-86
2024/01/23 05:03:24;;;;;;;12.90;9.10;;;;;;;3.56;82.83;100156.96;106192;1285;22604;-84
2024/01/23 05:05:52;;;;;;;10.30;7.30;;;;;;;3.55;82.83;100161.84;106495;1288;22727;-85
2024/01/23 05:08:19;;;;;;;13.30;9.10;;;;;;;3.54;83.08;100161.48;106455;1288;22600;-84
2024/01/23 05:10:46;;;;;;;13.20;8.80;;;;;;;3.55;83.08;100162.35;105931;1294;22819;-85
2024/01/23 05:13:13;;;;;;;12.70;8.70;;;;;;;3.57;83.05;100164.83;105672;1289;23176;-84
2024/01/23 05:15:41;;;;;;;13.30;9.00;;;;;;;3.58;83.18;100167.80;105806;1292;24077;-85
2024/01/23 05:18:10;;;;;;;13.20;7.60;;;;;;;3.56;83.32;100168.48;105872;1293;25492;-85
2024/01/23 05:20:38;;;;;;;10.90;8.30;;;;;;;3.55;83.32;100169.14;105937;1293;24305;-85
2024/01/23 05:23:05;;;;;;;13.70;8.80;;;;;;;3.53;83.47;100167.73;105994;1288;22566;-87
2024/01/23 05:25:35;;;;;;;13.60;9.10;;;;;;;3.52;83.43;100168.23;106082;1289;25290;-86
2024/01/23 05:28:03;;;;;;;13.50;9.00;;;;;;;3.53;83.47;100170.34;106094;1266;22688;-87
2024/01/23 05:30:32;;;;;;;12.50;8.30;;;;;;;3.52;83.36;100173.11;105594;1294;22553;-85
2024/01/23 05:33:00;;;;;;;12.40;9.00;;;;;;;3.53;83.46;100169.27;105611;1289;22579;-86
2024/01/23 05:35:28;;;;;;;11.60;8.20;;;;;;;3.52;83.47;100173.48;106001;1288;22546;-83
2024/01/23 05:37:56;;;;;;;14.40;10.00;;;;;;;3.49;83.40;100172.37;106090;1289;22575;-83
2024/01/23 05:40:24;;;;;;;11.60;8.20;;;;;;;3.45;83.42;100173.16;106095;1277;22666;-86
2024/01/23 05:42:51;;;;;;;10.50;8.40;;;;;;;3.42;83.56;100177.48;105864;1289;25323;-83
2024/01/23 05:45:27;;;;;;;10.50;9.00;;;;;;;3.40;83.66;100183.36;105871;1289;23915;-86
2024/01/23 05:47:57;;;;;;;13.20;9.40;;;;;;;3.40;83.76;100179.70;106361;1282;25492;-86
2024/01/23 05:50:27;;;;;;;11.90;9.30;;;;;;;3.37;83.81;100184.52;106406;1282;24072;-85
2024/01/23 05:52:54;;;;;;;14.30;9.50;;;;;;;3.32;84.04;100187.23;106567;1275;22543;-85
2024/01/23 05:55:24;;;;;;;11.40;9.30;;;;;;;3.30;84.13;100192.23;106838;1275;22539;-86
2024/01/23 05:57:53;;;;;;;14.00;9.70;;;;;;;3.30;84.32;100193.98;107304;1274;22545;-87
2024/01/23 06:00:21;;;;;;;13.10;9.50;;;;;;;3.31;84.28;100196.95;106811;1277;23173;-87
2024/01/23 06:02:49;;;;;;;14.60;9.70;;;;;;;3.25;84.34;100201.75;107014;1279;22694;-86
2024/01/23 06:05:19;;;;;;;12.40;9.50;;;;;;;3.20;84.62;100207.40;106555;1285;22540;-86
2024/01/23 06:07:57;;;;;;;14.00;9.40;;;;;;;3.19;84.85;100217.28;106814;1286;22625;-87
2024/01/23 06:10:47;;;;;;;13.40;10.60;;;;;;;3.20;84.94;100211.56;106600;1286;25437;-85
2024/01/23 06:13:34;;;;;;;13.30;10.60;;;;;;;3.18;84.98;100210.83;108076;1286;22828;-86
2024/01/23 06:16:06;;;;;;;10.90;8.50;;;;;;;3.19;85.20;100216.41;107493;1289;23958;-86
2024/01/23 06:18:42;;;;;;;11.90;9.80;;;;;;;3.21;85.10;100211.94;106800;1289;25432;-84
2024/01/23 06:21:10;;;;;;;14.70;10.10;;;;;;;3.21;85.19;100211.41;107926;1295;22582;-84
2024/01/23 06:23:38;;;;;;;13.90;9.90;;;;;;;3.20;85.10;100207.55;107977;1294;23041;-84
2024/01/23 06:26:05;;;;;;;15.20;9.70;;;;;;;3.18;85.22;100203.34;106992;1291;25549;-88
2024/01/23 06:28:33;;;;;;;15.60;10.80;;;;;;;3.19;85.41;100204.23;106341;1293;22856;-85
2024/01/23 06:31:08;;;;;;;15.40;11.60;;;;;;;3.17;85.52;100206.98;106120;1294;25524;-87
2024/01/23 06:33:41;;;;;;;13.40;10.30;;;;;;;3.14;85.60;100210.41;106279;1287;22707;-86
2024/01/23 06:36:13;;;;;;;12.70;10.30;;;;;;;3.12;85.63;100215.25;106181;1289;22671;-85
2024/01/23 06:38:42;;;;;;;12.30;10.00;;;;;;;3.14;85.75;100218.74;105959;1286;23094;-84
2024/01/23 06:41:11;;;;;;;14.20;11.00;;;;;;;3.12;85.80;100218.02;106506;1280;22535;-85
2024/01/23 06:43:49;;;;;;;14.30;10.50;;;;;;;3.12;85.92;100231.07;106294;1279;22539;-85
2024/01/23 06:46:37;;;;;;;;;;;;;;;3.12;85.88;100240.83;106329;1281;25397;-85
2024/01/23 06:49:05;;;;;;;15.10;9.70;;;;;;;3.12;86.10;100244.29;106711;1281;22621;-84
2024/01/23 06:51:38;;;;;;;12.50;9.60;;;;;;;3.11;86.04;100249.69;106412;1281;22707;-86
2024/01/23 06:54:07;;;;;;;12.90;10.20;;;;;;;3.12;86.08;100261.52;106930;1281;22673;-85
2024/01/23 06:56:36;;;;;;;13.20;10.30;;;;;;;3.09;86.01;100270.52;106583;1281;22576;-85
2024/01/23 06:59:08;;;;;;;16.80;10.90;;;;;;;3.07;86.17;100272.41;106645;1281;25866;-84
2024/01/23 07:01:45;;;;;;;12.80;10.50;;;;;;;3.07;86.28;100271.88;106638;1275;22531;-86
2024/01/23 07:04:15;;;;;;;14.30;11.30;;;;;;;3.07;86.27;100272.57;107089;1276;25462;-88
2024/01/23 07:06:46;;;;;;;15.50;11.20;;;;;;;3.10;86.35;100276.63;106770;1275;25510;-86
2024/01/23 07:09:14;;;;;;;13.70;11.10;;;;;;;3.11;86.26;100275.08;106628;1281;25287;-86
2024/01/23 07:11:43;;;;;;;13.30;10.30;;;;;;;3.10;86.23;100280.10;106307;1269;24220;-89
2024/01/23 07:14:14;;;;;;;13.80;10.90;;;;;;;3.12;86.25;100279.11;106643;1284;22573;-85
2024/01/23 07:16:43;;;;;;;16.20;10.90;;;;;;;3.12;86.37;100285.19;106504;1280;25692;-86
2024/01/23 07:19:19;;;;;;;14.60;11.00;;;;;;;3.11;86.21;100291.96;106308;1285;25301;-85
2024/01/23 07:21:48;;;;;;;13.60;10.50;;;;;;;3.13;86.31;100294.27;106035;1286;22547;-85
2024/01/23 07:24:18;;;;;;;12.90;10.40;;;;;;;3.15;86.53;100295.52;108661;1291;24421;-84
2024/01/23 07:26:45;;;;;;;13.20;10.70;;;;;;;3.17;86.64;100303.75;109021;1285;22573;-85
2024/01/23 07:29:14;;;;;;;14.90;11.20;;;;;;;3.21;86.49;100309.05;106449;1285;22483;-85
2024/01/23 07:31:41;;;;;;;15.30;10.50;;;;;;;3.30;86.41;100311.64;106581;1281;24265;-86
2024/01/23 07:34:09;;;;;;;14.60;10.70;;;;;;;3.37;86.36;100318.23;106831;1277;22665;-86
2024/01/23 07:36:41;;;;;;;14.10;10.50;;;;;;;3.43;86.13;100319.20;106809;1281;22495;-86
2024/01/23 07:39:09;;;;;;;16.40;11.50;;;;;;;3.48;86.01;100316.86;107532;1274;22735;-86
2024/01/23 07:41:38;;;;;;;15.00;10.90;;;;;;;3.51;85.91;100319.87;108175;1274;22606;-85
2024/01/23 07:44:06;;;;;;;11.90;8.80;;;;;;;3.56;85.84;100333.20;109292;1274;22546;-84
2024/01/23 07:46:34;;;;;;;17.50;11.30;;;;;;;3.61;85.72;100337.13;110006;1273;22557;-83
2024/01/23 07:49:02;;;;;;;12.90;11.00;;;;;;;3.63;85.62;100336.66;109849;1277;22604;-84
2024/01/23 07:51:47;;;;;;;13.80;10.30;;;;;;;3.64;85.54;100338.05;109036;1280;25484;-84
2024/01/23 07:54:15;;;;;;;13.90;9.70;;;;;;;3.67;85.51;100339.86;108804;1280;22563;-85
2024/01/23 07:57:04;;;;;;;13.00;9.60;;;;;;;3.71;85.42;100338.36;109911;1280;22616;-86
2024/01/23 07:59:34;;;;;;;14.00;10.00;;;;;;;3.76;85.33;100338.44;109081;1284;22506;-87
2024/01/23 08:02:02;;;;;;;11.70;9.30;;;;;;;3.78;85.28;100339.86;108001;1284;22626;-86
2024/01/23 08:04:52;;;;;;;13.60;9.50;;;;;;;3.79;85.22;100343.71;107749;1284;25943;-86
2024/01/23 08:07:41;;;;;;;14.40;9.40;;;;;;;3.81;85.07;100342.35;106784;1279;22536;-87
2024/01/23 08:10:11;;;;;;;14.10;9.00;;;;;;;3.79;85.09;100349.13;107014;1279;25421;-87
2024/01/23 08:12:41;;;;;;;15.50;9.90;;;;;;;3.79;85.05;100345.11;106438;1283;22504;-86
2024/01/23 08:15:14;;;;;;;10.90;8.10;;;;;;;3.79;85.03;100345.10;106522;1281;23134;-85
2024/01/23 08:17:47;;;;;;;12.70;8.10;;;;;;;3.80;85.04;100349.66;106204;1289;22543;-85
2024/01/23 08:20:16;;;;;;;15.00;9.90;;;;;;;3.82;84.89;100349.69;106051;1294;23542;-85
2024/01/23 08:22:49;;;;;;;13.10;9.50;;;;;;;3.82;84.90;100352.84;106050;1294;25864;-86
2024/01/23 08:25:17;;;;;;;12.30;9.40;;;;;;;3.86;85.00;100355.19;106241;1290;24240;-86
2024/01/23 08:27:54;;;;;;;13.40;10.10;;;;;;;3.87;84.68;100355.54;106623;1290;23920;-86
2024/01/23 08:30:31;;;;;;;13.40;9.50;;;;;;;3.88;84.85;100365.84;107121;1286;22948;-86
2024/01/23 08:33:02;;;;;;;12.80;9.60;;;;;;;3.91;84.67;100363.98;108051;1286;22590;-87
2024/01/23 08:35:37;;;;;;;13.60;9.00;;;;;;;3.93;84.64;100364.70;108600;1290;22634;-86
2024/01/23 08:38:09;;;;;;;14.40;9.50;;;;;;;3.93;84.45;100364.87;108141;1284;22568;-87
2024/01/23 08:40:39;;;;;;;14.10;9.50;;;;;;;3.94;84.37;100363.84;108415;1288;22797;-84
2024/01/23 08:43:09;;;;;;;14.10;9.40;;;;;;;3.96;84.37;100364.23;107960;1288;22652;-86
2024/01/23 08:45:39;;;;;;;14.80;9.80;;;;;;;3.96;84.25;100369.80;107338;1295;26157;-88
2024/01/23 08:48:08;;;;;;;12.50;8.90;;;;;;;3.99;84.25;100377.16;106014;1295;22553;-87
2024/01/23 08:51:00;;;;;;;13.70;8.90;;;;;;;4.01;84.05;100381.56;105740;1295;22565;-88
2024/01/23 08:53:29;;;;;;;13.60;9.70;;;;;;;4.04;84.13;100387.70;105855;1289;24243;-88
2024/01/23 08:56:12;;;;;;;15.30;10.00;;;;;;;4.07;84.10;100390.56;106118;1276;26780;-87
2024/01/23 08:58:57;;;;;;;12.20;8.60;;;;;;;4.10;83.80;100396.70;106161;1287;24254;-87
2024/01/23 09:01:27;;;;;;;14.00;9.40;;;;;;;4.14;83.77;100391.73;106398;1281;22533;-87
2024/01/23 09:03:56;;;;;;;11.30;9.30;;;;;;;4.20;83.79;100394.61;107055;1274;22611;-90
2024/01/23 09:06:25;;;;;;;11.70;8.60;;;;;;;4.29;83.45;100402.98;107220;1274;22587;-85
2024/01/23 09:08:55;;;;;;;15.00;9.40;;;;;;;4.31;83.19;100394.45;107218;1270;26560;-85
2024/01/23 09:11:25;;;;;;;10.20;8.60;;;;;;;4.34;83.11;100397.46;107233;1273;24383;-87
2024/01/23 09:14:03;;;;;;;13.70;8.80;;;;;;;4.42;83.17;100401.44;107117;1273;25406;-87
2024/01/23 09:16:32;;;;;;;14.00;8.60;;;;;;;4.47;82.86;100399.23;107407;1271;22562;-87
2024/01/23 09:19:05;;;;;;;12.50;9.10;;;;;;;4.52;82.77;100407.86;107435;1273;25319;-86
2024/01/23 09:21:33;;;;;;;12.70;8.30;;;;;;;4.60;82.55;100406.95;107175;1274;24977;-85
2024/01/23 09:24:07;;;;;;;12.30;7.60;;;;;;;4.59;82.16;100405.00;106849;1279;22531;-88
2024/01/23 09:26:40;;;;;;;14.20;8.40;;;;;;;4.55;82.00;100418.39;106690;1283;24764;-86
2024/01/23 09:29:09;;;;;;;17.60;9.80;;;;;;;4.52;82.02;100417.81;107003;1283;22633;-86
2024/01/23 09:31:50;;;;;;;11.10;7.90;;;;;;;4.54;82.36;100423.41;107510;1283;22534;-86
2024/01/23 09:34:19;;;;;;;10.60;8.20;;;;;;;4.65;81.89;100416.79;107588;1283;22557;-87
2024/01/23 09:36:48;;;;;;;11.00;8.00;;;;;;;4.67;81.73;100416.64;107676;1283;22494;-88
2024/01/23 09:39:36;;;;;;;16.20;8.70;;;;;;;4.67;81.59;100419.98;107744;1283;24140;-86
2024/01/23 09:42:05;;;;;;;10.50;8.50;;;;;;;4.66;81.49;100431.63;107892;1280;22543;-88
2024/01/23 09:44:36;;;;;;;13.00;8.30;;;;;;;4.66;81.33;100421.16;107897;1273;22504;-87
2024/01/23 09:47:04;;;;;;;12.00;7.40;;;;;;;4.62;81.42;100425.63;107728;1273;22527;-88
2024/01/23 09:49:39;;;;;;;11.20;7.10;;;;;;;4.65;81.55;100432.65;107397;1273;22530;-88
2024/01/23 09:52:18;;;;;;;14.10;8.50;;;;;;;4.68;81.34;100433.23;106797;1280;24209;-86
2024/01/23 09:55:35;;;;;;;;;;;;;;;;;;;;;
2024/01/23 09:58:43;;;;;;;;;;;;;;;;;;;;;
2024/01/23 10:01:08;;;;;;;10.90;7.30;;;;;;;4.52;81.28;100433.67;105907;1276;24260;-86
2024/01/23 10:03:48;;;;;;;11.60;8.40;;;;;;;4.50;81.29;100430.85;105777;1297;22632;-87
2024/01/23 10:06:36;;;;;;;16.30;9.60;;;;;;;4.45;81.30;100428.69;105431;1297;25547;-87
2024/01/23 10:09:04;;;;;;;12.70;8.30;;;;;;;4.41;81.46;100433.15;105563;1297;22765;-87
2024/01/23 10:11:35;;;;;;;12.70;8.40;;;;;;;4.43;81.74;100435.63;106100;1291;22557;-85
2024/01/23 10:14:15;;;;;;;13.80;8.40;;;;;;;4.54;81.91;100438.95;106011;1292;22543;-88
2024/01/23 10:16:47;;;;;;;12.80;7.80;;;;;;;4.61;81.23;100431.90;105974;1292;22550;-86
2024/01/23 10:19:16;;;;;;;12.70;9.10;;;;;;;4.53;81.13;100433.00;105993;1292;22552;-86
2024/01/23 10:21:44;;;;;;;11.40;7.80;;;;;;;4.53;81.38;100433.00;105891;1292;25356;-85
2024/01/23 10:24:12;;;;;;;14.30;8.40;;;;;;;4.59;81.56;100436.23;106671;1292;22684;-86
2024/01/23 10:26:44;;;;;;;13.70;8.40;;;;;;;4.67;81.43;100438.44;106446;1292;22566;-86
2024/01/23 10:29:13;;;;;;;12.00;8.10;;;;;;;4.72;81.15;100440.81;106592;1288;23909;-86
2024/01/23 10:31:42;;;;;;;15.70;8.80;;;;;;;4.77;81.08;100438.79;106746;1283;22563;-85
2024/01/23 10:34:11;;;;;;;13.90;7.20;;;;;;;4.79;80.89;100434.45;106615;1287;23032;-88
2024/01/23 10:36:42;;;;;;;12.40;7.50;;;;;;;4.85;80.81;100441.33;106367;1288;22579;-86
2024/01/23 10:39:13;;;;;;;11.10;7.50;;;;;;;4.87;80.57;100435.09;106316;1288;22612;-85
2024/01/23 10:41:41;;;;;;;10.70;7.30;;;;;;;4.88;80.64;100438.77;106414;1287;22556;-87
2024/01/23 10:44:13;;;;;;;13.60;7.30;;;;;;;4.87;80.48;100437.00;106295;1273;22573;-86
2024/01/23 10:46:43;;;;;;;13.00;8.10;;;;;;;4.81;80.47;100447.56;105897;1293;25441;-87
2024/01/23 10:49:19;;;;;;;13.90;9.30;;;;;;;4.74;80.90;100438.03;106888;1285;25356;-84
2024/01/23 10:51:51;;;;;;;10.50;7.00;;;;;;;4.66;81.34;100434.41;107139;1286;22575;-85
2024/01/23 10:54:44;;;;;;;11.60;7.70;;;;;;;4.63;81.77;100433.49;107277;1286;22831;-86
2024/01/23 10:57:24;;;;;;;13.50;8.30;;;;;;;4.62;81.91;100437.85;106979;1289;23944;-87
2024/01/23 10:59:52;;;;;;;14.60;8.30;;;;;;;4.62;82.13;100450.39;107327;1289;22611;-85
2024/01/23 11:02:30;;;;;;;11.60;8.40;;;;;;;4.60;82.20;100448.63;107608;1291;22640;-84
2024/01/23 11:04:59;;;;;;;12.30;8.30;;;;;;;4.60;82.21;100447.75;107518;1289;22535;-84
2024/01/23 11:07:37;;;;;;;15.50;8.00;;;;;;;4.63;82.27;100446.75;107488;1274;22796;-84
2024/01/23 11:10:36;;;;;;;14.40;7.60;;;;;;;4.59;82.20;100448.26;106793;1289;22563;-86
2024/01/23 11:13:38;;;;;;;12.70;7.50;;;;;;;4.58;82.26;100447.73;106283;1286;24535;-86
2024/01/23 11:16:09;;;;;;;10.80;7.50;;;;;;;4.55;82.16;100456.23;106060;1289;22549;-86
2024/01/23 11:18:40;;;;;;;14.00;8.20;;;;;;;4.54;82.15;100457.09;106234;1289;22549;-86
2024/01/23 11:21:24;;;;;;;16.90;8.80;;;;;;;4.56;82.30;100451.17;106502;1284;25308;-86
2024/01/23 11:24:37;;;;;;;11.60;7.50;;;;;;;4.61;82.31;100454.91;106428;1284;25947;-86
2024/01/23 11:27:29;;;;;;;12.60;8.40;;;;;;;4.63;82.04;100460.71;106567;1287;22548;-85
2024/01/23 11:30:22;;;;;;;13.10;8.50;;;;;;;4.61;81.95;100460.86;106361;1292;24404;-85
2024/01/23 11:33:41;;;;;;;14.00;8.40;;;;;;;4.62;81.94;100461.04;106102;1293;25319;-86
2024/01/23 11:36:23;;;;;;;16.90;8.90;;;;;;;4.64;81.80;100460.04;106690;1287;22597;-86
2024/01/23 11:39:00;;;;;;;11.70;8.20;;;;;;;4.61;81.57;100462.41;108365;1287;22816;-82
2024/01/23 11:41:28;;;;;;;16.40;7.80;;;;;;;4.60;81.70;100461.88;108598;1287;25324;-82
2024/01/23 11:44:14;;;;;;;14.10;8.10;;;;;;;4.64;81.74;100456.20;106636;1287;22605;-82
2024/01/23 11:46:47;;;;;;;14.80;8.20;;;;;;;4.68;81.52;100451.91;108645;1285;22880;-82
2024/01/23 11:49:17;;;;;;;13.50;7.80;;;;;;;4.70;81.52;100449.49;109467;1280;22650;-86
2024/01/23 11:51:52;;;;;;;11.20;6.80;;;;;;;4.75;81.50;100454.46;108017;1280;22545;-83
2024/01/23 11:54:19;;;;;;;12.40;8.00;;;;;;;4.77;81.20;100453.09;107583;1275;22490;-84
2024/01/23 11:56:48;;;;;;;13.80;7.20;;;;;;;4.75;81.16;100454.97;107369;1275;24237;-84
2024/01/23 11:59:15;;;;;;;13.80;6.50;;;;;;;4.77;81.16;100452.04;107298;1272;25275;-85
2024/01/23 12:01:44;;;;;;;13.90;6.80;;;;;;;4.76;81.10;100451.52;107478;1256;22523;-84